sensor_id;sensor_type;location;lat;lon;timestamp;temperature;humidity
15296;DHT22;7749;49.964;7.890;2022-07-29T00:00:19;21.10;99.90
15296;DHT22;7749;49.964;7.890;2022-07-29T00:02:46;21.10;99.90
15296;DHT22;7749;49.964;7.890;2022-07-29T00:05:14;21.00;1.00
15296;DHT22;7749;49.964;7.890;2022-07-29T00:07:41;21.00;1.00
15296;DHT22;7749;49.964;7.890;2022-07-29T00:10:08;20.90;1.00
15296;DHT22;7749;49.964;7.890;2022-07-29T00:12:36;20.80;1.00
15296;DHT22;7749;49.964;7.890;2022-07-29T00:15:04;20.70;1.00
15296;DHT22;7749;49.964;7.890;2022-07-29T00:17:31;20.60;1.00
15296;DHT22;7749;49.964;7.890;2022-07-29T00:20:00;20.50;99.90
15296;DHT22;7749;49.964;7.890;2022-07-29T00:22:28;20.40;99.90
15296;DHT22;7749;49.964;7.890;2022-07-29T00:24:55;20.30;1.00
15296;DHT22;7749;49.964;7.890;2022-07-29T00:27:23;20.30;1.00
15296;DHT22;7749;49.964;7.890;2022-07-29T00:29:50;20.20;1.00
15296;DHT22;7749;49.964;7.890;2022-07-29T00:32:17;20.30;99.90
15296;DHT22;7749;49.964;7.890;2022-07-29T00:34:44;20.20;1.00
15296;DHT22;7749;49.964;7.890;2022-07-29T00:37:30;20.20;1.00
15296;DHT22;7749;49.964;7.890;2022-07-29T00:39:58;20.10;99.90
15296;DHT22;7749;49.964;7.890;2022-07-29T00:42:25;20.00;99.90
15296;DHT22;7749;49.964;7.890;2022-07-29T00:44:53;19.90;1.00
15296;DHT22;7749;49.964;7.890;2022-07-29T00:47:20;19.80;99.90
15296;DHT22;7749;49.964;7.890;2022-07-29T00:49:47;19.70;1.00
15296;DHT22;7749;49.964;7.890;2022-07-29T00:52:15;19.70;99.90
15296;DHT22;7749;49.964;7.890;2022-07-29T00:54:43;19.50;99.90
15296;DHT22;7749;49.964;7.890;2022-07-29T00:57:11;19.50;99.90
15296;DHT22;7749;49.964;7.890;2022-07-29T00:59:39;19.50;1.00
15296;DHT22;7749;49.964;7.890;2022-07-29T01:02:07;19.40;99.90
15296;DHT22;7749;49.964;7.890;2022-07-29T01:04:35;19.40;99.90
15296;DHT22;7749;49.964;7.890;2022-07-29T01:07:05;19.40;1.00
15296;DHT22;7749;49.964;7.890;2022-07-29T01:09:34;19.30;1.00
15296;DHT22;7749;49.964;7.890;2022-07-29T01:12:25;19.30;1.00
15296;DHT22;7749;49.964;7.890;2022-07-29T01:14:53;19.20;1.00
15296;DHT22;7749;49.964;7.890;2022-07-29T01:31:47;19.10;1.00
15296;DHT22;7749;49.964;7.890;2022-07-29T01:34:50;19.10;1.00
15296;DHT22;7749;49.964;7.890;2022-07-29T01:37:24;19.00;99.90
15296;DHT22;7749;49.964;7.890;2022-07-29T01:39:57;19.00;99.90
15296;DHT22;7749;49.964;7.890;2022-07-29T01:42:43;18.90;99.90
15296;DHT22;7749;49.964;7.890;2022-07-29T01:45:23;18.90;1.00
15296;DHT22;7749;49.964;7.890;2022-07-29T01:50:39;18.80;99.90
15296;DHT22;7749;49.964;7.890;2022-07-29T01:53:10;18.80;99.90
15296;DHT22;7749;49.964;7.890;2022-07-29T01:55:42;18.80;1.00
15296;DHT22;7749;49.964;7.890;2022-07-29T01:58:12;18.80;1.00
15296;DHT22;7749;49.964;7.890;2022-07-29T02:00:40;18.70;1.00
15296;DHT22;7749;49.964;7.890;2022-07-29T02:03:11;18.50;1.00
15296;DHT22;7749;49.964;7.890;2022-07-29T02:06:04;18.20;1.00
15296;DHT22;7749;49.964;7.890;2022-07-29T02:08:33;17.90;6.60
15296;DHT22;7749;49.964;7.890;2022-07-29T02:11:03;17.80;2.80
15296;DHT22;7749;49.964;7.890;2022-07-29T02:13:34;17.80;13.70
15296;DHT22;7749;49.964;7.890;2022-07-29T02:16:04;17.70;1.00
15296;DHT22;7749;49.964;7.890;2022-07-29T02:18:33;17.80;1.00
15296;DHT22;7749;49.964;7.890;2022-07-29T02:21:05;17.80;1.00
15296;DHT22;7749;49.964;7.890;2022-07-29T02:23:42;17.80;1.00
15296;DHT22;7749;49.964;7.890;2022-07-29T02:26:19;17.90;1.00
15296;DHT22;7749;49.964;7.890;2022-07-29T02:28:48;18.00;1.00
15296;DHT22;7749;49.964;7.890;2022-07-29T02:31:18;18.00;1.00
15296;DHT22;7749;49.964;7.890;2022-07-29T02:33:47;18.10;1.00
15296;DHT22;7749;49.964;7.890;2022-07-29T02:36:16;18.10;1.00
15296;DHT22;7749;49.964;7.890;2022-07-29T02:38:44;18.10;1.00
15296;DHT22;7749;49.964;7.890;2022-07-29T02:41:33;18.10;1.00
15296;DHT22;7749;49.964;7.890;2022-07-29T02:44:06;18.10;1.00
15296;DHT22;7749;49.964;7.890;2022-07-29T02:46:40;17.90;1.00
15296;DHT22;7749;49.964;7.890;2022-07-29T02:49:10;17.90;1.00
15296;DHT22;7749;49.964;7.890;2022-07-29T02:51:43;17.90;1.00
15296;DHT22;7749;49.964;7.890;2022-07-29T02:54:20;17.80;1.00
15296;DHT22;7749;49.964;7.890;2022-07-29T02:56:49;17.80;5.20
15296;DHT22;7749;49.964;7.890;2022-07-29T02:59:22;17.60;23.50
15296;DHT22;7749;49.964;7.890;2022-07-29T03:01:52;17.60;2.30
15296;DHT22;7749;49.964;7.890;2022-07-29T03:04:23;17.60;1.00
15296;DHT22;7749;49.964;7.890;2022-07-29T03:06:52;17.70;1.00
15296;DHT22;7749;49.964;7.890;2022-07-29T03:09:21;17.60;1.00
15296;DHT22;7749;49.964;7.890;2022-07-29T03:11:50;17.70;1.00
15296;DHT22;7749;49.964;7.890;2022-07-29T03:14:19;17.70;1.00
15296;DHT22;7749;49.964;7.890;2022-07-29T03:16:48;17.70;1.00
15296;DHT22;7749;49.964;7.890;2022-07-29T03:19:18;17.70;1.00
15296;DHT22;7749;49.964;7.890;2022-07-29T03:21:47;17.60;1.00
15296;DHT22;7749;49.964;7.890;2022-07-29T03:24:29;17.60;1.00
15296;DHT22;7749;49.964;7.890;2022-07-29T03:26:57;17.60;1.00
15296;DHT22;7749;49.964;7.890;2022-07-29T03:29:25;17.70;1.00
15296;DHT22;7749;49.964;7.890;2022-07-29T03:32:04;17.50;1.00
15296;DHT22;7749;49.964;7.890;2022-07-29T03:34:36;17.40;17.10
15296;DHT22;7749;49.964;7.890;2022-07-29T03:37:05;17.30;21.40
15296;DHT22;7749;49.964;7.890;2022-07-29T03:39:39;17.40;7.50
15296;DHT22;7749;49.964;7.890;2022-07-29T03:42:10;17.40;1.00
15296;DHT22;7749;49.964;7.890;2022-07-29T03:44:39;17.50;1.00
15296;DHT22;7749;49.964;7.890;2022-07-29T03:47:09;17.50;1.00
15296;DHT22;7749;49.964;7.890;2022-07-29T03:49:39;17.50;1.00
15296;DHT22;7749;49.964;7.890;2022-07-29T03:52:07;17.50;1.00
15296;DHT22;7749;49.964;7.890;2022-07-29T03:54:35;17.50;1.00
15296;DHT22;7749;49.964;7.890;2022-07-29T03:57:04;17.60;1.00
15296;DHT22;7749;49.964;7.890;2022-07-29T03:59:33;17.60;1.00
15296;DHT22;7749;49.964;7.890;2022-07-29T04:02:04;17.60;1.00
15296;DHT22;7749;49.964;7.890;2022-07-29T04:04:33;17.60;1.00
15296;DHT22;7749;49.964;7.890;2022-07-29T04:07:02;17.60;1.00
15296;DHT22;7749;49.964;7.890;2022-07-29T04:09:29;17.60;1.00
15296;DHT22;7749;49.964;7.890;2022-07-29T04:11:57;17.50;1.00
15296;DHT22;7749;49.964;7.890;2022-07-29T04:14:35;17.60;1.00
15296;DHT22;7749;49.964;7.890;2022-07-29T04:17:04;17.60;1.00
15296;DHT22;7749;49.964;7.890;2022-07-29T04:19:32;17.70;1.00
15296;DHT22;7749;49.964;7.890;2022-07-29T04:22:00;17.60;1.00
15296;DHT22;7749;49.964;7.890;2022-07-29T04:24:28;17.70;1.00
15296;DHT22;7749;49.964;7.890;2022-07-29T04:26:55;17.80;1.00
15296;DHT22;7749;49.964;7.890;2022-07-29T04:29:23;17.80;1.00
15296;DHT22;7749;49.964;7.890;2022-07-29T04:31:50;18.10;1.00
15296;DHT22;7749;49.964;7.890;2022-07-29T04:34:17;18.30;1.00
15296;DHT22;7749;49.964;7.890;2022-07-29T04:36:46;18.30;1.00
15296;DHT22;7749;49.964;7.890;2022-07-29T04:39:13;18.50;1.00
15296;DHT22;7749;49.964;7.890;2022-07-29T04:41:55;18.60;1.00
15296;DHT22;7749;49.964;7.890;2022-07-29T04:44:23;18.70;1.00
15296;DHT22;7749;49.964;7.890;2022-07-29T04:46:55;18.90;1.00
15296;DHT22;7749;49.964;7.890;2022-07-29T04:49:23;19.00;1.00
15296;DHT22;7749;49.964;7.890;2022-07-29T04:51:51;19.20;1.00
15296;DHT22;7749;49.964;7.890;2022-07-29T04:54:18;19.30;1.00
15296;DHT22;7749;49.964;7.890;2022-07-29T04:56:46;19.50;1.00
15296;DHT22;7749;49.964;7.890;2022-07-29T04:59:13;19.60;1.00
15296;DHT22;7749;49.964;7.890;2022-07-29T05:01:43;19.80;1.00
15296;DHT22;7749;49.964;7.890;2022-07-29T05:04:11;19.80;1.00
15296;DHT22;7749;49.964;7.890;2022-07-29T05:06:38;19.80;1.00
15296;DHT22;7749;49.964;7.890;2022-07-29T05:09:06;19.80;99.90
15296;DHT22;7749;49.964;7.890;2022-07-29T05:11:33;19.90;99.90
15296;DHT22;7749;49.964;7.890;2022-07-29T05:14:00;19.90;99.90
15296;DHT22;7749;49.964;7.890;2022-07-29T05:16:30;19.90;99.90
15296;DHT22;7749;49.964;7.890;2022-07-29T05:18:57;20.00;1.00
15296;DHT22;7749;49.964;7.890;2022-07-29T05:21:25;20.10;1.00
15296;DHT22;7749;49.964;7.890;2022-07-29T05:23:52;20.20;1.00
15296;DHT22;7749;49.964;7.890;2022-07-29T05:26:19;20.30;1.00
15296;DHT22;7749;49.964;7.890;2022-07-29T05:28:46;20.30;99.90
15296;DHT22;7749;49.964;7.890;2022-07-29T05:31:14;20.30;1.00
15296;DHT22;7749;49.964;7.890;2022-07-29T05:33:44;20.30;1.00
15296;DHT22;7749;49.964;7.890;2022-07-29T05:36:12;20.10;1.00
15296;DHT22;7749;49.964;7.890;2022-07-29T05:38:39;20.20;1.00
15296;DHT22;7749;49.964;7.890;2022-07-29T05:41:07;20.40;99.90
15296;DHT22;7749;49.964;7.890;2022-07-29T05:43:36;20.50;99.90
15296;DHT22;7749;49.964;7.890;2022-07-29T05:46:04;20.60;1.00
15296;DHT22;7749;49.964;7.890;2022-07-29T05:48:31;20.60;1.00
15296;DHT22;7749;49.964;7.890;2022-07-29T05:50:59;20.60;1.00
15296;DHT22;7749;49.964;7.890;2022-07-29T05:53:26;20.50;1.00
15296;DHT22;7749;49.964;7.890;2022-07-29T05:55:54;20.30;99.90
15296;DHT22;7749;49.964;7.890;2022-07-29T05:58:21;20.30;1.00
15296;DHT22;7749;49.964;7.890;2022-07-29T06:00:49;20.30;1.00
15296;DHT22;7749;49.964;7.890;2022-07-29T06:03:16;20.40;1.00
15296;DHT22;7749;49.964;7.890;2022-07-29T06:05:44;20.50;1.00
15296;DHT22;7749;49.964;7.890;2022-07-29T06:08:11;20.60;1.00
15296;DHT22;7749;49.964;7.890;2022-07-29T06:10:38;20.70;99.90
15296;DHT22;7749;49.964;7.890;2022-07-29T06:13:06;21.00;99.90
15296;DHT22;7749;49.964;7.890;2022-07-29T06:15:33;21.20;1.00
15296;DHT22;7749;49.964;7.890;2022-07-29T06:18:01;21.20;99.90
15296;DHT22;7749;49.964;7.890;2022-07-29T06:20:29;21.30;99.90
15296;DHT22;7749;49.964;7.890;2022-07-29T06:22:57;21.30;7.10
15296;DHT22;7749;49.964;7.890;2022-07-29T06:25:25;21.60;1.00
15296;DHT22;7749;49.964;7.890;2022-07-29T06:27:53;21.80;1.00
15296;DHT22;7749;49.964;7.890;2022-07-29T06:30:20;21.50;99.90
15296;DHT22;7749;49.964;7.890;2022-07-29T06:32:48;21.20;1.00
15296;DHT22;7749;49.964;7.890;2022-07-29T06:35:16;21.10;99.90
15296;DHT22;7749;49.964;7.890;2022-07-29T06:38:03;21.30;1.00
15296;DHT22;7749;49.964;7.890;2022-07-29T06:40:45;21.30;1.00
15296;DHT22;7749;49.964;7.890;2022-07-29T06:43:35;21.30;1.00
15296;DHT22;7749;49.964;7.890;2022-07-29T06:46:18;21.70;99.90
15296;DHT22;7749;49.964;7.890;2022-07-29T06:48:46;21.80;99.90
15296;DHT22;7749;49.964;7.890;2022-07-29T06:51:17;21.90;99.90
15296;DHT22;7749;49.964;7.890;2022-07-29T06:53:49;22.00;1.00
15296;DHT22;7749;49.964;7.890;2022-07-29T06:56:33;22.10;1.00
15296;DHT22;7749;49.964;7.890;2022-07-29T06:59:09;22.30;99.90
15296;DHT22;7749;49.964;7.890;2022-07-29T07:01:39;22.20;1.00
15296;DHT22;7749;49.964;7.890;2022-07-29T07:04:07;22.50;1.00
15296;DHT22;7749;49.964;7.890;2022-07-29T07:06:36;22.90;1.00
15296;DHT22;7749;49.964;7.890;2022-07-29T07:09:04;23.00;1.00
15296;DHT22;7749;49.964;7.890;2022-07-29T07:11:31;23.10;99.90
15296;DHT22;7749;49.964;7.890;2022-07-29T07:13:59;23.30;99.90
15296;DHT22;7749;49.964;7.890;2022-07-29T07:16:31;23.30;1.00
15296;DHT22;7749;49.964;7.890;2022-07-29T07:18:59;23.40;99.90
15296;DHT22;7749;49.964;7.890;2022-07-29T07:21:27;23.50;99.90
15296;DHT22;7749;49.964;7.890;2022-07-29T07:23:57;23.50;47.10
15296;DHT22;7749;49.964;7.890;2022-07-29T07:26:25;23.50;30.80
15296;DHT22;7749;49.964;7.890;2022-07-29T07:28:52;23.40;1.00
15296;DHT22;7749;49.964;7.890;2022-07-29T07:31:22;23.50;99.90
15296;DHT22;7749;49.964;7.890;2022-07-29T07:33:49;23.60;99.90
15296;DHT22;7749;49.964;7.890;2022-07-29T07:36:17;23.60;1.00
15296;DHT22;7749;49.964;7.890;2022-07-29T07:38:44;23.50;1.00
15296;DHT22;7749;49.964;7.890;2022-07-29T07:41:11;23.50;99.90
15296;DHT22;7749;49.964;7.890;2022-07-29T07:43:39;23.30;99.90
15296;DHT22;7749;49.964;7.890;2022-07-29T07:46:06;23.30;99.90
15296;DHT22;7749;49.964;7.890;2022-07-29T07:48:35;23.40;1.00
15296;DHT22;7749;49.964;7.890;2022-07-29T07:51:03;23.90;1.00
15296;DHT22;7749;49.964;7.890;2022-07-29T07:53:34;24.30;99.90
15296;DHT22;7749;49.964;7.890;2022-07-29T07:56:01;24.70;99.90
15296;DHT22;7749;49.964;7.890;2022-07-29T07:58:41;24.60;1.00
15296;DHT22;7749;49.964;7.890;2022-07-29T08:01:11;24.30;99.90
15296;DHT22;7749;49.964;7.890;2022-07-29T08:03:39;24.20;99.90
15296;DHT22;7749;49.964;7.890;2022-07-29T08:06:06;24.40;99.90
15296;DHT22;7749;49.964;7.890;2022-07-29T08:08:34;24.70;99.90
15296;DHT22;7749;49.964;7.890;2022-07-29T08:11:01;24.70;99.90
15296;DHT22;7749;49.964;7.890;2022-07-29T08:13:36;24.60;99.90
15296;DHT22;7749;49.964;7.890;2022-07-29T08:16:05;24.40;99.90
15296;DHT22;7749;49.964;7.890;2022-07-29T08:18:40;23.90;99.90
15296;DHT22;7749;49.964;7.890;2022-07-29T08:21:08;23.80;99.90
15296;DHT22;7749;49.964;7.890;2022-07-29T08:23:35;24.00;99.90
15296;DHT22;7749;49.964;7.890;2022-07-29T08:26:15;24.20;99.90
15296;DHT22;7749;49.964;7.890;2022-07-29T08:28:45;24.30;99.90
15296;DHT22;7749;49.964;7.890;2022-07-29T08:31:13;24.40;99.90
15296;DHT22;7749;49.964;7.890;2022-07-29T08:33:41;24.40;81.80
15296;DHT22;7749;49.964;7.890;2022-07-29T08:36:09;24.30;51.70
15296;DHT22;7749;49.964;7.890;2022-07-29T08:38:36;24.50;25.00
15296;DHT22;7749;49.964;7.890;2022-07-29T08:41:04;24.80;1.00
15296;DHT22;7749;49.964;7.890;2022-07-29T08:43:31;25.30;1.00
15296;DHT22;7749;49.964;7.890;2022-07-29T08:46:00;25.70;1.00
15296;DHT22;7749;49.964;7.890;2022-07-29T08:48:27;25.90;1.00
15296;DHT22;7749;49.964;7.890;2022-07-29T08:50:56;26.10;1.00
15296;DHT22;7749;49.964;7.890;2022-07-29T08:53:26;25.90;1.00
15296;DHT22;7749;49.964;7.890;2022-07-29T08:55:55;25.90;1.00
15296;DHT22;7749;49.964;7.890;2022-07-29T08:58:23;26.10;1.00
15296;DHT22;7749;49.964;7.890;2022-07-29T09:00:54;26.10;1.00
15296;DHT22;7749;49.964;7.890;2022-07-29T09:03:29;26.20;1.00
15296;DHT22;7749;49.964;7.890;2022-07-29T09:05:58;26.50;1.00
15296;DHT22;7749;49.964;7.890;2022-07-29T09:08:26;26.70;1.00
15296;DHT22;7749;49.964;7.890;2022-07-29T09:10:54;26.70;1.00
15296;DHT22;7749;49.964;7.890;2022-07-29T09:13:30;26.60;1.00
15296;DHT22;7749;49.964;7.890;2022-07-29T09:15:57;26.70;1.00
15296;DHT22;7749;49.964;7.890;2022-07-29T09:18:34;26.80;1.00
15296;DHT22;7749;49.964;7.890;2022-07-29T09:21:04;27.00;1.00
15296;DHT22;7749;49.964;7.890;2022-07-29T09:24:10;27.20;1.00
15296;DHT22;7749;49.964;7.890;2022-07-29T09:26:42;27.60;1.00
15296;DHT22;7749;49.964;7.890;2022-07-29T09:29:12;28.10;1.00
15296;DHT22;7749;49.964;7.890;2022-07-29T09:31:41;28.70;1.00
15296;DHT22;7749;49.964;7.890;2022-07-29T09:34:10;28.90;1.00
15296;DHT22;7749;49.964;7.890;2022-07-29T09:36:44;29.00;1.00
15296;DHT22;7749;49.964;7.890;2022-07-29T09:39:13;29.20;1.00
15296;DHT22;7749;49.964;7.890;2022-07-29T09:41:48;29.40;1.00
15296;DHT22;7749;49.964;7.890;2022-07-29T09:44:16;29.40;1.00
15296;DHT22;7749;49.964;7.890;2022-07-29T09:47:00;28.70;99.90
15296;DHT22;7749;49.964;7.890;2022-07-29T09:49:50;28.80;99.90
15296;DHT22;7749;49.964;7.890;2022-07-29T09:52:20;28.90;99.90
15296;DHT22;7749;49.964;7.890;2022-07-29T09:54:51;29.30;99.90
15296;DHT22;7749;49.964;7.890;2022-07-29T09:57:26;29.30;99.90
15296;DHT22;7749;49.964;7.890;2022-07-29T10:02:34;30.00;99.90
15296;DHT22;7749;49.964;7.890;2022-07-29T10:05:03;30.20;99.90
15296;DHT22;7749;49.964;7.890;2022-07-29T10:07:54;30.00;99.90
15296;DHT22;7749;49.964;7.890;2022-07-29T10:10:25;29.90;99.90
15296;DHT22;7749;49.964;7.890;2022-07-29T10:15:39;30.60;99.90
15296;DHT22;7749;49.964;7.890;2022-07-29T10:18:08;30.30;99.90
15296;DHT22;7749;49.964;7.890;2022-07-29T10:20:37;30.10;99.90
15296;DHT22;7749;49.964;7.890;2022-07-29T10:23:05;30.20;99.90
15296;DHT22;7749;49.964;7.890;2022-07-29T10:25:32;30.10;99.90
15296;DHT22;7749;49.964;7.890;2022-07-29T10:28:00;30.10;99.90
15296;DHT22;7749;49.964;7.890;2022-07-29T10:30:27;30.10;99.90
15296;DHT22;7749;49.964;7.890;2022-07-29T10:41:39;30.70;99.90
15296;DHT22;7749;49.964;7.890;2022-07-29T10:44:16;30.40;99.90
15296;DHT22;7749;49.964;7.890;2022-07-29T10:46:49;30.60;99.90
15296;DHT22;7749;49.964;7.890;2022-07-29T10:49:19;30.60;99.90
15296;DHT22;7749;49.964;7.890;2022-07-29T10:52:08;30.60;99.90
15296;DHT22;7749;49.964;7.890;2022-07-29T10:57:30;30.90;99.90
15296;DHT22;7749;49.964;7.890;2022-07-29T11:00:27;30.80;99.90
15296;DHT22;7749;49.964;7.890;2022-07-29T11:02:57;31.10;99.90
15296;DHT22;7749;49.964;7.890;2022-07-29T11:05:25;31.40;99.90
15296;DHT22;7749;49.964;7.890;2022-07-29T11:10:51;30.90;99.90
15296;DHT22;7749;49.964;7.890;2022-07-29T11:13:52;31.40;99.90
15296;DHT22;7749;49.964;7.890;2022-07-29T11:16:22;32.10;99.90
15296;DHT22;7749;49.964;7.890;2022-07-29T11:21:42;33.70;99.90
15296;DHT22;7749;49.964;7.890;2022-07-29T11:24:29;34.00;99.90
15296;DHT22;7749;49.964;7.890;2022-07-29T11:27:08;35.50;99.90
15296;DHT22;7749;49.964;7.890;2022-07-29T11:29:56;37.10;99.90
15296;DHT22;7749;49.964;7.890;2022-07-29T11:32:45;39.40;99.90
15296;DHT22;7749;49.964;7.890;2022-07-29T11:35:33;41.00;99.90
15296;DHT22;7749;49.964;7.890;2022-07-29T11:38:25;41.20;99.90
15296;DHT22;7749;49.964;7.890;2022-07-29T11:41:23;40.40;99.90
15296;DHT22;7749;49.964;7.890;2022-07-29T11:43:55;41.00;99.90
15296;DHT22;7749;49.964;7.890;2022-07-29T11:49:21;41.90;95.50
15296;DHT22;7749;49.964;7.890;2022-07-29T11:51:59;42.10;93.00
15296;DHT22;7749;49.964;7.890;2022-07-29T11:54:33;40.90;94.70
15296;DHT22;7749;49.964;7.890;2022-07-29T11:57:21;40.70;96.00
15296;DHT22;7749;49.964;7.890;2022-07-29T12:00:05;41.20;93.40
15296;DHT22;7749;49.964;7.890;2022-07-29T12:02:44;40.60;93.10
15296;DHT22;7749;49.964;7.890;2022-07-29T12:05:15;38.90;99.70
15296;DHT22;7749;49.964;7.890;2022-07-29T12:08:27;37.50;99.90
15296;DHT22;7749;49.964;7.890;2022-07-29T12:10:54;36.10;99.90
15296;DHT22;7749;49.964;7.890;2022-07-29T12:13:22;36.00;99.90
15296;DHT22;7749;49.964;7.890;2022-07-29T12:16:04;37.50;99.90
15296;DHT22;7749;49.964;7.890;2022-07-29T12:18:32;37.50;99.90
15296;DHT22;7749;49.964;7.890;2022-07-29T12:21:01;37.90;99.90
15296;DHT22;7749;49.964;7.890;2022-07-29T12:23:32;38.60;99.90
15296;DHT22;7749;49.964;7.890;2022-07-29T12:26:05;40.50;96.40
15296;DHT22;7749;49.964;7.890;2022-07-29T12:28:38;41.90;86.80
15296;DHT22;7749;49.964;7.890;2022-07-29T12:31:13;42.40;74.00
15296;DHT22;7749;49.964;7.890;2022-07-29T12:34:01;43.60;63.80
15296;DHT22;7749;49.964;7.890;2022-07-29T12:36:28;42.00;63.30
15296;DHT22;7749;49.964;7.890;2022-07-29T12:38:56;40.70;68.50
15296;DHT22;7749;49.964;7.890;2022-07-29T12:41:24;40.10;81.60
15296;DHT22;7749;49.964;7.890;2022-07-29T12:43:53;39.70;84.80
15296;DHT22;7749;49.964;7.890;2022-07-29T12:46:21;38.40;93.00
15296;DHT22;7749;49.964;7.890;2022-07-29T12:48:53;36.90;97.40
15296;DHT22;7749;49.964;7.890;2022-07-29T12:51:36;37.40;99.90
15296;DHT22;7749;49.964;7.890;2022-07-29T12:54:14;39.30;93.40
15296;DHT22;7749;49.964;7.890;2022-07-29T12:56:59;40.50;80.90
15296;DHT22;7749;49.964;7.890;2022-07-29T12:59:27;40.30;71.50
15296;DHT22;7749;49.964;7.890;2022-07-29T13:01:55;39.30;73.20
15296;DHT22;7749;49.964;7.890;2022-07-29T13:04:27;39.10;82.80
15296;DHT22;7749;49.964;7.890;2022-07-29T13:07:06;39.80;82.40
15296;DHT22;7749;49.964;7.890;2022-07-29T13:09:45;39.90;76.00
15296;DHT22;7749;49.964;7.890;2022-07-29T13:12:14;40.20;75.40
15296;DHT22;7749;49.964;7.890;2022-07-29T13:14:46;42.90;58.50
15296;DHT22;7749;49.964;7.890;2022-07-29T13:17:19;43.90;52.10
15296;DHT22;7749;49.964;7.890;2022-07-29T13:19:50;43.50;40.80
15296;DHT22;7749;49.964;7.890;2022-07-29T13:22:22;42.40;43.90
15296;DHT22;7749;49.964;7.890;2022-07-29T13:24:51;40.20;57.00
15296;DHT22;7749;49.964;7.890;2022-07-29T13:27:21;38.70;71.50
15296;DHT22;7749;49.964;7.890;2022-07-29T13:29:53;37.60;80.00
15296;DHT22;7749;49.964;7.890;2022-07-29T13:32:25;36.60;91.10
15296;DHT22;7749;49.964;7.890;2022-07-29T13:34:56;33.50;99.90
15296;DHT22;7749;49.964;7.890;2022-07-29T13:37:24;33.20;99.90
15296;DHT22;7749;49.964;7.890;2022-07-29T13:39:53;32.80;99.90
15296;DHT22;7749;49.964;7.890;2022-07-29T13:42:22;32.60;99.90
15296;DHT22;7749;49.964;7.890;2022-07-29T13:44:50;32.50;99.90
15296;DHT22;7749;49.964;7.890;2022-07-29T13:47:22;32.10;99.90
15296;DHT22;7749;49.964;7.890;2022-07-29T13:50:04;31.30;99.90
15296;DHT22;7749;49.964;7.890;2022-07-29T13:52:33;31.20;99.90
15296;DHT22;7749;49.964;7.890;2022-07-29T13:55:03;31.40;99.90
15296;DHT22;7749;49.964;7.890;2022-07-29T13:57:31;31.40;99.90
15296;DHT22;7749;49.964;7.890;2022-07-29T13:59:59;31.00;99.90
15296;DHT22;7749;49.964;7.890;2022-07-29T14:02:26;31.20;99.90
15296;DHT22;7749;49.964;7.890;2022-07-29T14:04:54;30.70;99.90
15296;DHT22;7749;49.964;7.890;2022-07-29T14:07:22;30.50;99.90
15296;DHT22;7749;49.964;7.890;2022-07-29T14:09:50;30.50;99.90
15296;DHT22;7749;49.964;7.890;2022-07-29T14:12:18;30.30;99.90
15296;DHT22;7749;49.964;7.890;2022-07-29T14:14:46;30.10;99.90
15296;DHT22;7749;49.964;7.890;2022-07-29T14:17:14;30.00;99.90
15296;DHT22;7749;49.964;7.890;2022-07-29T14:19:42;30.00;99.90
15296;DHT22;7749;49.964;7.890;2022-07-29T14:22:10;29.90;99.90
15296;DHT22;7749;49.964;7.890;2022-07-29T14:24:38;29.60;99.90
15296;DHT22;7749;49.964;7.890;2022-07-29T14:27:07;28.90;99.90
15296;DHT22;7749;49.964;7.890;2022-07-29T14:29:37;27.80;99.90
15296;DHT22;7749;49.964;7.890;2022-07-29T14:32:06;26.70;1.00
15296;DHT22;7749;49.964;7.890;2022-07-29T14:34:37;26.40;1.00
15296;DHT22;7749;49.964;7.890;2022-07-29T14:37:05;26.50;1.00
15296;DHT22;7749;49.964;7.890;2022-07-29T14:39:34;26.50;1.00
15296;DHT22;7749;49.964;7.890;2022-07-29T14:42:10;26.70;99.90
15296;DHT22;7749;49.964;7.890;2022-07-29T14:44:40;27.00;1.00
15296;DHT22;7749;49.964;7.890;2022-07-29T14:47:08;27.30;1.00
15296;DHT22;7749;49.964;7.890;2022-07-29T14:49:38;27.90;1.00
15296;DHT22;7749;49.964;7.890;2022-07-29T14:52:06;28.40;1.00
15296;DHT22;7749;49.964;7.890;2022-07-29T14:54:33;28.60;1.00
15296;DHT22;7749;49.964;7.890;2022-07-29T14:57:01;28.80;1.00
15296;DHT22;7749;49.964;7.890;2022-07-29T14:59:29;29.20;1.00
15296;DHT22;7749;49.964;7.890;2022-07-29T15:01:57;29.70;1.00
15296;DHT22;7749;49.964;7.890;2022-07-29T15:04:25;30.70;99.90
15296;DHT22;7749;49.964;7.890;2022-07-29T15:06:55;33.40;99.90
15296;DHT22;7749;49.964;7.890;2022-07-29T15:09:25;35.60;99.90
15296;DHT22;7749;49.964;7.890;2022-07-29T15:11:52;35.30;99.90
15296;DHT22;7749;49.964;7.890;2022-07-29T15:14:20;35.10;99.90
15296;DHT22;7749;49.964;7.890;2022-07-29T15:16:47;36.30;99.90
15296;DHT22;7749;49.964;7.890;2022-07-29T15:19:16;37.20;99.90
15296;DHT22;7749;49.964;7.890;2022-07-29T15:21:44;38.40;99.90
15296;DHT22;7749;49.964;7.890;2022-07-29T15:24:16;38.30;99.90
15296;DHT22;7749;49.964;7.890;2022-07-29T15:26:49;38.00;99.90
15296;DHT22;7749;49.964;7.890;2022-07-29T15:29:17;36.80;99.90
15296;DHT22;7749;49.964;7.890;2022-07-29T15:31:45;35.20;99.90
15296;DHT22;7749;49.964;7.890;2022-07-29T15:34:13;34.10;99.90
15296;DHT22;7749;49.964;7.890;2022-07-29T15:36:41;33.00;99.90
15296;DHT22;7749;49.964;7.890;2022-07-29T15:39:20;32.20;99.90
15296;DHT22;7749;49.964;7.890;2022-07-29T15:41:48;31.40;99.90
15296;DHT22;7749;49.964;7.890;2022-07-29T15:44:15;31.00;99.90
15296;DHT22;7749;49.964;7.890;2022-07-29T15:46:43;30.30;99.90
15296;DHT22;7749;49.964;7.890;2022-07-29T15:49:33;29.70;99.90
15296;DHT22;7749;49.964;7.890;2022-07-29T15:52:19;29.50;99.90
15296;DHT22;7749;49.964;7.890;2022-07-29T15:54:56;29.20;99.90
15296;DHT22;7749;49.964;7.890;2022-07-29T15:57:24;29.10;99.90
15296;DHT22;7749;49.964;7.890;2022-07-29T15:59:52;28.80;99.90
15296;DHT22;7749;49.964;7.890;2022-07-29T16:02:20;28.60;99.90
15296;DHT22;7749;49.964;7.890;2022-07-29T16:04:47;28.40;1.00
15296;DHT22;7749;49.964;7.890;2022-07-29T16:07:15;28.10;1.00
15296;DHT22;7749;49.964;7.890;2022-07-29T16:09:43;28.10;1.00
15296;DHT22;7749;49.964;7.890;2022-07-29T16:12:18;27.90;1.00
15296;DHT22;7749;49.964;7.890;2022-07-29T16:14:46;27.50;1.00
15296;DHT22;7749;49.964;7.890;2022-07-29T16:17:16;26.90;1.00
15296;DHT22;7749;49.964;7.890;2022-07-29T16:19:44;27.70;99.90
15296;DHT22;7749;49.964;7.890;2022-07-29T16:22:12;28.30;1.00
15296;DHT22;7749;49.964;7.890;2022-07-29T16:24:40;28.40;1.00
15296;DHT22;7749;49.964;7.890;2022-07-29T16:27:07;28.40;1.00
15296;DHT22;7749;49.964;7.890;2022-07-29T16:29:35;29.30;99.90
15296;DHT22;7749;49.964;7.890;2022-07-29T16:32:05;30.40;1.00
15296;DHT22;7749;49.964;7.890;2022-07-29T16:34:32;30.50;1.00
15296;DHT22;7749;49.964;7.890;2022-07-29T16:37:00;30.20;99.90
15296;DHT22;7749;49.964;7.890;2022-07-29T16:39:28;29.60;1.00
15296;DHT22;7749;49.964;7.890;2022-07-29T16:41:55;30.40;99.90
15296;DHT22;7749;49.964;7.890;2022-07-29T16:44:28;32.10;1.00
15296;DHT22;7749;49.964;7.890;2022-07-29T16:46:55;34.00;1.00
15296;DHT22;7749;49.964;7.890;2022-07-29T16:49:26;33.60;1.00
15296;DHT22;7749;49.964;7.890;2022-07-29T16:51:53;33.20;1.00
15296;DHT22;7749;49.964;7.890;2022-07-29T16:54:21;33.30;1.00
15296;DHT22;7749;49.964;7.890;2022-07-29T16:56:48;34.20;99.90
15296;DHT22;7749;49.964;7.890;2022-07-29T16:59:16;35.00;99.90